createdAt,value
2023-05-09T00:02:11.165Z,2.20
2023-05-09T00:04:38.717Z,2.77
2023-05-09T00:07:06.188Z,1.60
2023-05-09T00:09:33.597Z,2.30
2023-05-09T00:12:01.409Z,3.90
2023-05-09T00:14:28.926Z,2.47
2023-05-09T00:16:59.260Z,3.20
2023-05-09T00:19:26.661Z,2.20
2023-05-09T00:21:54.208Z,3.13
2023-05-09T00:24:21.561Z,2.10
2023-05-09T00:26:49.032Z,2.50
2023-05-09T00:29:16.473Z,2.70
2023-05-09T00:31:43.826Z,1.93
2023-05-09T00:34:11.255Z,2.97
2023-05-09T00:36:39.792Z,2.80
2023-05-09T00:39:07.880Z,1.60
2023-05-09T00:41:35.204Z,1.93
2023-05-09T00:44:02.631Z,1.53
2023-05-09T00:46:30.082Z,2.77
2023-05-09T00:48:57.627Z,1.80
2023-05-09T00:51:25.035Z,4.33
2023-05-09T00:53:52.555Z,1.57
2023-05-09T00:56:20.023Z,2.70
2023-05-09T00:58:47.785Z,1.07
2023-05-09T01:01:16.412Z,1.97
2023-05-09T01:03:44.733Z,2.40
2023-05-09T01:06:37.963Z,2.23
2023-05-09T01:09:31.576Z,2.23
2023-05-09T01:12:07.989Z,3.00
2023-05-09T01:14:47.128Z,2.90
2023-05-09T01:17:44.021Z,3.33
2023-05-09T01:20:36.394Z,1.80
2023-05-09T01:23:31.633Z,2.23
2023-05-09T01:26:03.288Z,0.83
2023-05-09T01:29:08.305Z,1.80
2023-05-09T01:31:40.954Z,1.70
2023-05-09T01:34:09.744Z,2.57
2023-05-09T01:36:38.406Z,2.07
2023-05-09T01:39:06.751Z,3.17
2023-05-09T01:41:37.225Z,1.90
2023-05-09T01:44:06.900Z,2.13
2023-05-09T01:46:35.429Z,2.50
2023-05-09T01:49:03.931Z,1.80
2023-05-09T01:51:31.718Z,3.47
2023-05-09T01:53:59.860Z,3.17
2023-05-09T01:56:28.325Z,2.90
2023-05-09T01:58:56.862Z,2.53
2023-05-09T02:01:24.976Z,2.87
2023-05-09T02:03:52.821Z,2.03
2023-05-09T02:06:22.482Z,3.70
2023-05-09T02:08:50.532Z,2.40
2023-05-09T02:11:17.975Z,1.97
2023-05-09T02:13:45.302Z,2.87
2023-05-09T02:16:12.771Z,1.93
2023-05-09T02:18:40.307Z,2.97
2023-05-09T02:21:08.205Z,2.07
2023-05-09T02:23:35.878Z,1.73
2023-05-09T02:26:03.348Z,2.00
2023-05-09T02:28:31.098Z,1.23
2023-05-09T02:30:59.307Z,2.50
2023-05-09T02:33:27.302Z,1.67
2023-05-09T02:35:55.334Z,3.20
2023-05-09T02:38:22.709Z,2.57
2023-05-09T02:40:52.607Z,2.93
2023-05-09T02:43:20.151Z,2.10
2023-05-09T02:45:47.544Z,2.43
2023-05-09T02:48:15.134Z,2.03
2023-05-09T02:50:43.440Z,1.83
2023-05-09T02:53:10.945Z,1.47
2023-05-09T02:55:40.396Z,2.20
2023-05-09T02:58:14.125Z,2.70
2023-05-09T03:00:43.604Z,1.07
2023-05-09T03:03:12.823Z,2.07
2023-05-09T03:05:40.325Z,2.60
2023-05-09T03:08:07.744Z,3.20
2023-05-09T03:10:35.689Z,1.20
2023-05-09T03:13:03.560Z,1.00
2023-05-09T03:15:31.345Z,2.20
2023-05-09T03:18:00.521Z,1.60
2023-05-09T03:20:27.961Z,1.97
2023-05-09T03:22:55.542Z,2.43
2023-05-09T03:25:22.961Z,4.27
2023-05-09T03:27:50.418Z,2.90
2023-05-09T03:30:18.808Z,1.83
2023-05-09T03:32:49.252Z,1.83
2023-05-09T03:35:16.900Z,2.20
2023-05-09T03:37:44.473Z,3.53
2023-05-09T03:40:12.213Z,3.37
2023-05-09T03:42:49.777Z,1.83
2023-05-09T03:45:17.250Z,1.47
2023-05-09T03:47:46.885Z,3.37
2023-05-09T03:50:14.905Z,1.90
2023-05-09T03:52:43.273Z,2.30
2023-05-09T03:55:11.298Z,1.10
2023-05-09T03:57:39.377Z,2.17
2023-05-09T04:00:08.095Z,2.10
2023-05-09T04:02:42.313Z,3.77
2023-05-09T04:05:16.797Z,1.57
2023-05-09T04:07:44.598Z,1.10
2023-05-09T04:10:12.622Z,2.27
2023-05-09T04:12:40.100Z,2.80
2023-05-09T04:15:08.308Z,1.93
2023-05-09T04:17:36.441Z,5.60
2023-05-09T04:20:04.304Z,4.70
2023-05-09T04:22:31.633Z,3.40
2023-05-09T04:24:59.087Z,2.37
2023-05-09T04:27:28.026Z,2.50
2023-05-09T04:29:55.702Z,3.43
2023-05-09T04:32:23.291Z,2.47
2023-05-09T04:34:50.957Z,2.53
2023-05-09T04:37:22.887Z,2.50
2023-05-09T04:39:50.771Z,2.20
2023-05-09T04:42:24.620Z,1.90
2023-05-09T04:44:52.446Z,2.07
2023-05-09T04:47:21.739Z,1.73
2023-05-09T04:49:49.078Z,3.10
2023-05-09T04:52:17.316Z,1.90
2023-05-09T04:54:44.861Z,2.97
2023-05-09T04:57:17.882Z,3.33
2023-05-09T04:59:49.666Z,2.70
2023-05-09T05:02:17.438Z,3.30
2023-05-09T05:04:45.538Z,5.10
2023-05-09T05:07:13.572Z,2.47
2023-05-09T05:09:41.377Z,4.53
2023-05-09T05:12:09.720Z,3.30
2023-05-09T05:14:38.553Z,3.60
2023-05-09T05:17:08.458Z,2.70
2023-05-09T05:19:36.071Z,3.33
2023-05-09T05:22:05.364Z,3.63
2023-05-09T05:24:33.597Z,2.73
2023-05-09T05:27:01.009Z,2.70
2023-05-09T05:29:28.403Z,2.93
2023-05-09T05:31:55.934Z,3.83
2023-05-09T05:34:23.455Z,5.13
2023-05-09T05:36:51.440Z,2.97
2023-05-09T05:39:18.758Z,4.67
2023-05-09T05:41:46.127Z,4.83
2023-05-09T05:44:13.555Z,2.70
2023-05-09T05:46:41.082Z,2.27
2023-05-09T05:49:08.678Z,3.10
2023-05-09T05:51:36.003Z,4.33
2023-05-09T05:54:05.216Z,5.50
2023-05-09T05:56:32.758Z,2.53
2023-05-09T05:59:00.177Z,4.37
2023-05-09T06:01:28.462Z,4.60
2023-05-09T06:03:56.159Z,5.37
2023-05-09T06:06:27.368Z,4.30
2023-05-09T06:08:55.756Z,5.07
2023-05-09T06:11:24.122Z,1.83
2023-05-09T06:13:51.616Z,3.73
2023-05-09T06:16:20.321Z,6.10
2023-05-09T06:18:53.309Z,6.27
2023-05-09T06:21:22.445Z,2.67
2023-05-09T06:24:07.707Z,2.87
2023-05-09T06:26:36.251Z,6.80
2023-05-09T06:29:06.641Z,4.30
2023-05-09T06:31:38.778Z,4.30
2023-05-09T06:34:06.834Z,3.20
2023-05-09T06:36:34.635Z,1.57
2023-05-09T06:39:02.088Z,2.20
2023-05-09T06:41:29.387Z,3.33
2023-05-09T06:43:56.756Z,4.07
2023-05-09T06:46:24.205Z,3.40
2023-05-09T06:48:51.514Z,3.80
2023-05-09T06:51:18.948Z,3.23
2023-05-09T06:53:46.306Z,5.10
2023-05-09T06:56:13.658Z,3.27
2023-05-09T06:58:41.039Z,2.83
2023-05-09T07:01:08.490Z,3.23
2023-05-09T07:03:35.818Z,3.50
2023-05-09T07:06:03.174Z,2.20
2023-05-09T07:08:30.620Z,3.53
2023-05-09T07:10:57.974Z,1.43
2023-05-09T07:13:25.459Z,2.87
2023-05-09T07:15:52.979Z,2.90
2023-05-09T07:18:20.333Z,3.37
2023-05-09T07:20:47.765Z,2.37
2023-05-09T07:23:15.115Z,2.77
2023-05-09T07:25:43.822Z,1.97
2023-05-09T07:28:12.410Z,4.17
2023-05-09T07:30:39.761Z,2.93
2023-05-09T07:33:07.965Z,2.30
2023-05-09T07:35:35.605Z,3.10
2023-05-09T07:38:02.964Z,2.40
2023-05-09T07:40:30.493Z,4.00
2023-05-09T07:42:58.716Z,3.83
2023-05-09T07:45:26.129Z,1.97
2023-05-09T07:47:53.563Z,3.00
2023-05-09T07:50:21.078Z,1.53
2023-05-09T07:52:48.685Z,3.17
2023-05-09T07:55:16.321Z,2.43
2023-05-09T07:57:43.966Z,4.03
2023-05-09T08:00:12.024Z,3.80
2023-05-09T08:02:42.343Z,3.97
2023-05-09T08:05:11.661Z,1.30
2023-05-09T08:07:39.304Z,2.33
2023-05-09T08:10:07.354Z,3.07
2023-05-09T08:12:34.778Z,3.43
2023-05-09T08:15:02.191Z,2.07
2023-05-09T08:17:29.554Z,1.80
2023-05-09T08:19:56.930Z,1.97
2023-05-09T08:22:24.723Z,3.17
2023-05-09T08:24:52.110Z,2.70
2023-05-09T08:27:19.470Z,3.13
2023-05-09T08:29:46.855Z,4.10
2023-05-09T08:32:14.438Z,2.63
2023-05-09T08:34:41.890Z,1.47
2023-05-09T08:37:09.383Z,2.07
2023-05-09T08:39:36.816Z,0.80
2023-05-09T08:42:04.195Z,0.90
2023-05-09T08:44:32.315Z,2.47
2023-05-09T08:47:02.591Z,2.20
2023-05-09T08:49:30.536Z,1.90
2023-05-09T08:51:58.180Z,1.57
2023-05-09T08:54:25.822Z,2.13
2023-05-09T08:56:53.405Z,1.97
2023-05-09T08:59:20.959Z,1.47
2023-05-09T09:01:48.396Z,1.77
2023-05-09T09:04:15.994Z,2.10
2023-05-09T09:06:43.666Z,1.67
2023-05-09T09:09:12.429Z,1.80
2023-05-09T09:11:41.621Z,1.23
2023-05-09T09:14:16.581Z,1.90
2023-05-09T09:16:46.129Z,2.60
2023-05-09T09:19:16.381Z,1.47
2023-05-09T09:21:45.558Z,0.90
2023-05-09T09:24:14.199Z,1.33
2023-05-09T09:26:47.815Z,1.43
2023-05-09T09:34:51.057Z,2.00
2023-05-09T09:37:27.401Z,2.20
2023-05-09T09:39:58.010Z,1.50
2023-05-09T09:42:25.427Z,1.03
2023-05-09T09:45:03.358Z,1.43
2023-05-09T09:47:33.837Z,1.50
2023-05-09T09:50:11.789Z,0.90
2023-05-09T09:52:56.073Z,1.90
2023-05-09T09:55:24.621Z,1.17
2023-05-09T09:57:52.627Z,1.67
2023-05-09T10:00:27.853Z,1.57
2023-05-09T10:02:59.087Z,1.67
2023-05-09T10:05:28.604Z,1.40
2023-05-09T10:08:01.055Z,1.13
2023-05-09T10:10:31.541Z,1.37
2023-05-09T10:13:10.768Z,1.00
2023-05-09T10:15:52.262Z,2.00
2023-05-09T10:18:26.424Z,1.33
2023-05-09T10:20:54.995Z,1.73
2023-05-09T10:23:24.228Z,1.07
2023-05-09T10:26:04.023Z,0.93
2023-05-09T10:28:33.790Z,2.30
2023-05-09T10:31:12.822Z,0.87
2023-05-09T10:33:47.709Z,1.30
2023-05-09T10:36:18.165Z,1.23
2023-05-09T10:38:46.739Z,0.90
2023-05-09T10:41:15.448Z,1.20
2023-05-09T10:43:43.318Z,1.30
2023-05-09T10:46:10.878Z,0.70
2023-05-09T10:48:38.402Z,0.50
2023-05-09T10:51:05.858Z,0.50
2023-05-09T10:53:50.123Z,0.77
2023-05-09T10:56:32.182Z,0.43
2023-05-09T10:59:00.141Z,0.60
2023-05-09T11:01:35.381Z,0.87
2023-05-09T11:04:14.304Z,0.67
2023-05-09T11:06:53.026Z,0.60
2023-05-09T11:09:33.694Z,0.80
2023-05-09T11:12:15.252Z,0.70
2023-05-09T11:14:44.989Z,1.17
2023-05-09T11:17:21.734Z,0.80
2023-05-09T11:19:49.194Z,1.03
2023-05-09T11:22:32.372Z,1.33
2023-05-09T11:25:05.568Z,1.07
2023-05-09T11:27:40.709Z,1.17
2023-05-09T11:30:09.533Z,1.73
2023-05-09T11:32:51.288Z,2.07
2023-05-09T11:35:21.024Z,1.10
2023-05-09T11:37:55.267Z,0.83
2023-05-09T11:40:23.640Z,2.13
2023-05-09T11:42:58.395Z,1.17
2023-05-09T11:45:31.618Z,1.07
2023-05-09T11:48:00.484Z,1.03
2023-05-09T11:50:27.934Z,1.70
2023-05-09T11:52:55.322Z,1.50
2023-05-09T11:55:23.187Z,4.03
2023-05-09T11:57:54.888Z,1.03
2023-05-09T12:00:26.331Z,1.10
2023-05-09T12:02:54.289Z,1.50
2023-05-09T12:05:22.775Z,1.30
2023-05-09T12:07:50.757Z,0.90
2023-05-09T12:10:21.350Z,1.70
2023-05-09T12:12:50.419Z,1.77
2023-05-09T12:15:18.880Z,1.10
2023-05-09T12:17:49.632Z,1.00
2023-05-09T12:20:18.705Z,1.10
2023-05-09T12:22:46.440Z,0.67
2023-05-09T12:25:14.128Z,0.50
2023-05-09T12:27:43.298Z,1.20
2023-05-09T12:30:14.016Z,1.00
2023-05-09T12:32:42.676Z,0.60
2023-05-09T12:35:11.220Z,1.63
2023-05-09T12:37:39.269Z,1.97
2023-05-09T12:40:15.708Z,0.63
2023-05-09T12:42:46.482Z,0.70
2023-05-09T12:45:14.686Z,0.93
2023-05-09T12:47:42.557Z,0.60
2023-05-09T12:50:14.233Z,0.90
2023-05-09T12:55:14.295Z,0.87
2023-05-09T12:57:43.020Z,0.80
2023-05-09T13:00:12.220Z,0.60
2023-05-09T13:02:42.209Z,0.87
2023-05-09T13:05:13.477Z,0.80
2023-05-09T13:07:52.360Z,0.60
2023-05-09T13:10:28.386Z,0.67
2023-05-09T13:12:55.823Z,0.70
2023-05-09T13:15:24.171Z,0.70
2023-05-09T13:17:52.679Z,1.00
2023-05-09T13:20:20.351Z,0.90
2023-05-09T13:22:47.840Z,0.50
2023-05-09T13:25:16.071Z,0.90
2023-05-09T13:27:43.375Z,0.67
2023-05-09T13:30:11.264Z,1.17
2023-05-09T13:32:38.605Z,1.00
2023-05-09T13:35:08.004Z,0.90
2023-05-09T13:37:35.873Z,0.60
2023-05-09T13:40:04.258Z,1.10
2023-05-09T13:42:33.439Z,0.47
2023-05-09T13:45:00.974Z,0.80
2023-05-09T13:47:28.413Z,0.70
2023-05-09T13:49:55.872Z,0.67
2023-05-09T13:52:24.062Z,0.87
2023-05-09T13:54:52.061Z,0.60
2023-05-09T13:57:19.367Z,0.47
2023-05-09T13:59:47.038Z,0.80
2023-05-09T14:02:14.398Z,0.90
2023-05-09T14:04:42.128Z,0.90
2023-05-09T14:07:12.111Z,0.70
2023-05-09T14:09:40.204Z,0.43
2023-05-09T14:12:08.063Z,0.60
2023-05-09T14:14:35.577Z,0.50
2023-05-09T14:17:03.012Z,0.60
2023-05-09T14:19:30.451Z,0.60
2023-05-09T14:21:57.913Z,0.60
2023-05-09T14:24:25.882Z,0.87
2023-05-09T14:26:53.366Z,1.27
2023-05-09T14:29:20.736Z,0.67
2023-05-09T14:31:48.158Z,0.60
2023-05-09T14:34:15.706Z,0.80
2023-05-09T14:36:43.199Z,0.73
2023-05-09T14:39:11.239Z,0.70
2023-05-09T14:41:38.670Z,0.90
2023-05-09T14:44:06.077Z,0.97
2023-05-09T14:46:33.744Z,0.60
2023-05-09T14:49:04.238Z,0.70
2023-05-09T14:51:33.394Z,0.77
2023-05-09T14:54:03.153Z,0.70
2023-05-09T14:56:31.780Z,0.50
2023-05-09T14:58:59.151Z,0.77
2023-05-09T15:01:26.544Z,0.70
2023-05-09T15:03:53.953Z,0.93
2023-05-09T15:06:21.578Z,0.60
2023-05-09T15:08:49.015Z,0.97
2023-05-09T15:11:16.423Z,0.80
2023-05-09T15:13:43.804Z,0.50
2023-05-09T15:16:11.322Z,0.50
2023-05-09T15:18:43.630Z,0.70
2023-05-09T15:21:11.168Z,0.70
2023-05-09T15:23:39.652Z,0.80
2023-05-09T15:26:12.514Z,0.50
2023-05-09T15:28:39.974Z,0.57
2023-05-09T15:31:08.389Z,0.70
2023-05-09T15:33:35.989Z,1.00
2023-05-09T15:36:03.460Z,0.90
2023-05-09T15:38:30.978Z,1.33
2023-05-09T15:40:58.309Z,1.10
2023-05-09T15:43:25.687Z,0.87
2023-05-09T15:45:53.093Z,0.43
2023-05-09T15:48:20.510Z,1.03
2023-05-09T15:50:48.533Z,0.80
2023-05-09T15:53:16.195Z,0.93
2023-05-09T15:55:43.820Z,0.50
2023-05-09T15:58:11.261Z,0.57
2023-05-09T16:00:39.754Z,0.60
2023-05-09T16:03:08.075Z,0.50
2023-05-09T16:05:35.500Z,0.60
2023-05-09T16:08:02.951Z,0.60
2023-05-09T16:10:30.436Z,0.40
2023-05-09T16:12:57.798Z,0.50
2023-05-09T16:15:25.188Z,0.60
2023-05-09T16:17:52.579Z,0.60
2023-05-09T16:20:20.045Z,0.60
2023-05-09T16:22:47.437Z,0.60
2023-05-09T16:25:15.958Z,0.70
2023-05-09T16:27:43.347Z,0.60
2023-05-09T16:30:11.106Z,0.40
2023-05-09T16:32:38.579Z,0.50
2023-05-09T16:35:06.339Z,0.60
2023-05-09T16:37:35.410Z,0.50
2023-05-09T16:40:04.385Z,0.50
2023-05-09T16:42:31.837Z,0.60
2023-05-09T16:44:59.185Z,0.60
2023-05-09T16:47:26.541Z,0.60
2023-05-09T16:49:53.942Z,0.50
2023-05-09T16:52:23.075Z,0.40
2023-05-09T16:54:50.785Z,0.60
2023-05-09T16:57:18.102Z,0.40
2023-05-09T16:59:46.359Z,0.40
2023-05-09T17:02:13.834Z,0.50
2023-05-09T17:04:41.193Z,0.60
2023-05-09T17:07:08.826Z,0.60
2023-05-09T17:09:36.252Z,0.50
2023-05-09T17:12:03.706Z,0.63
2023-05-09T17:14:31.175Z,0.87
2023-05-09T17:16:58.969Z,0.50
2023-05-09T17:19:26.470Z,0.60
2023-05-09T17:21:56.000Z,0.40
2023-05-09T17:24:23.365Z,0.50
2023-05-09T17:26:50.739Z,0.50
2023-05-09T17:29:18.217Z,0.93
2023-05-09T17:31:45.611Z,0.50
2023-05-09T17:34:13.017Z,0.70
2023-05-09T17:36:40.449Z,0.73
2023-05-09T17:39:07.777Z,0.50
2023-05-09T17:41:35.252Z,1.13
2023-05-09T17:44:02.676Z,0.50
2023-05-09T17:46:30.076Z,1.07
2023-05-09T17:48:57.626Z,0.50
2023-05-09T17:51:24.987Z,0.73
2023-05-09T17:53:52.904Z,0.70
2023-05-09T17:56:22.295Z,0.60
2023-05-09T17:58:53.006Z,0.90
2023-05-09T18:01:20.720Z,0.70
2023-05-09T18:03:48.222Z,0.60
2023-05-09T18:06:15.718Z,0.73
2023-05-09T18:08:43.314Z,1.00
2023-05-09T18:11:11.127Z,1.60
2023-05-09T18:13:38.823Z,0.77
2023-05-09T18:16:06.517Z,0.70
2023-05-09T18:18:35.550Z,0.50
2023-05-09T18:21:04.943Z,1.20
2023-05-09T18:23:32.306Z,0.50
2023-05-09T18:25:59.732Z,0.60
2023-05-09T18:28:27.508Z,0.90
2023-05-09T18:30:55.726Z,1.07
2023-05-09T18:33:27.812Z,0.87
2023-05-09T18:35:55.523Z,0.50
2023-05-09T18:38:23.085Z,1.43
2023-05-09T18:40:52.293Z,0.60
2023-05-09T18:43:23.193Z,0.70
2023-05-09T18:45:51.848Z,0.80
2023-05-09T18:48:19.300Z,1.33
2023-05-09T18:50:47.218Z,0.70
2023-05-09T18:53:14.649Z,0.60
2023-05-09T18:55:42.743Z,1.27
2023-05-09T18:58:10.170Z,2.20
2023-05-09T19:00:37.698Z,1.03
2023-05-09T19:03:05.135Z,1.03
2023-05-09T19:05:32.581Z,0.87
2023-05-09T19:07:59.971Z,0.77
2023-05-09T19:10:27.531Z,0.80
2023-05-09T19:12:56.328Z,0.77
2023-05-09T19:15:23.702Z,0.80
2023-05-09T19:17:51.203Z,0.60
2023-05-09T19:20:18.879Z,0.70
2023-05-09T19:22:51.155Z,0.70
2023-05-09T19:25:19.081Z,0.57
2023-05-09T19:27:46.977Z,0.60
2023-05-09T19:30:17.940Z,0.83
2023-05-09T19:32:45.500Z,1.03
2023-05-09T19:35:12.893Z,0.63
2023-05-09T19:37:40.752Z,0.97
2023-05-09T19:40:08.493Z,1.00
2023-05-09T19:42:37.169Z,0.83
2023-05-09T19:45:05.108Z,0.60
2023-05-09T19:47:32.506Z,0.87
2023-05-09T19:50:02.017Z,0.93
2023-05-09T19:52:32.296Z,1.07
2023-05-09T19:54:59.706Z,0.83
2023-05-09T19:57:27.092Z,1.10
2023-05-09T19:59:55.597Z,1.93
2023-05-09T20:02:22.991Z,0.80
2023-05-09T20:04:50.480Z,1.23
2023-05-09T20:07:18.383Z,1.10
2023-05-09T20:09:45.816Z,0.70
2023-05-09T20:12:13.573Z,0.60
2023-05-09T20:14:41.173Z,0.50
2023-05-09T20:17:08.557Z,0.73
2023-05-09T20:19:36.147Z,0.50
2023-05-09T20:22:04.036Z,1.03
2023-05-09T20:24:31.610Z,1.27
2023-05-09T20:26:59.110Z,1.23
2023-05-09T20:29:26.919Z,0.80
2023-05-09T20:31:54.516Z,0.60
2023-05-09T20:34:22.847Z,0.93
2023-05-09T20:36:53.323Z,0.60
2023-05-09T20:39:21.333Z,1.03
2023-05-09T20:41:50.538Z,1.37
2023-05-09T20:44:19.107Z,0.60
2023-05-09T20:46:46.724Z,2.40
2023-05-09T20:49:15.409Z,1.00
2023-05-09T20:51:42.814Z,0.67
2023-05-09T20:54:10.327Z,1.03
2023-05-09T20:56:37.736Z,0.77
2023-05-09T20:59:05.446Z,0.43
2023-05-09T21:01:36.712Z,1.00
2023-05-09T21:04:06.738Z,0.50
2023-05-09T21:06:37.013Z,0.50
2023-05-09T21:09:05.666Z,0.50
2023-05-09T21:11:33.039Z,0.50
2023-05-09T21:14:00.449Z,0.80
2023-05-09T21:16:28.483Z,1.03
2023-05-09T21:18:55.869Z,1.27
2023-05-09T21:21:23.306Z,0.83
2023-05-09T21:23:50.690Z,0.80
2023-05-09T21:26:18.049Z,0.93
2023-05-09T21:28:45.423Z,0.50
2023-05-09T21:31:12.809Z,0.67
2023-05-09T21:33:40.318Z,1.47
2023-05-09T21:36:08.019Z,0.67
2023-05-09T21:38:35.574Z,0.40
2023-05-09T21:41:02.979Z,0.80
2023-05-09T21:43:30.417Z,0.60
2023-05-09T21:45:57.903Z,1.27
2023-05-09T21:48:25.375Z,0.80
2023-05-09T21:50:52.720Z,0.53
2023-05-09T21:53:20.204Z,0.47
2023-05-09T21:55:47.728Z,1.43
2023-05-09T21:58:15.086Z,0.50
2023-05-09T22:00:42.423Z,0.50
2023-05-09T22:03:09.974Z,0.50
2023-05-09T22:05:37.438Z,0.77
2023-05-09T22:08:05.306Z,0.80
2023-05-09T22:10:32.824Z,0.40
2023-05-09T22:13:00.215Z,0.70
2023-05-09T22:15:27.908Z,0.73
2023-05-09T22:17:55.754Z,0.50
2023-05-09T22:20:23.265Z,0.60
2023-05-09T22:22:50.748Z,0.53
2023-05-09T22:25:18.153Z,0.40
2023-05-09T22:27:45.619Z,0.70
2023-05-09T22:30:13.239Z,0.70
2023-05-09T22:32:40.877Z,0.83
2023-05-09T22:35:08.700Z,0.43
2023-05-09T22:37:37.204Z,0.57
2023-05-09T22:40:05.583Z,0.60
2023-05-09T22:42:34.689Z,0.70
2023-05-09T22:45:02.340Z,0.50
2023-05-09T22:47:29.828Z,0.37
2023-05-09T22:49:57.278Z,0.40
2023-05-09T22:52:24.648Z,0.57
2023-05-09T22:54:52.358Z,0.40
2023-05-09T22:57:20.592Z,0.40
2023-05-09T22:59:48.050Z,0.77
2023-05-09T23:02:15.530Z,0.90
2023-05-09T23:04:42.994Z,0.50
2023-05-09T23:07:10.475Z,0.57
2023-05-09T23:09:38.345Z,0.50
2023-05-09T23:12:06.169Z,0.60
2023-05-09T23:14:33.660Z,0.43
2023-05-09T23:17:01.149Z,0.57
2023-05-09T23:19:28.566Z,0.70
2023-05-09T23:21:58.340Z,0.63
2023-05-09T23:24:25.789Z,0.40
2023-05-09T23:26:54.450Z,0.40
2023-05-09T23:29:21.987Z,0.40
2023-05-09T23:31:49.747Z,0.40
2023-05-09T23:34:17.495Z,0.40
2023-05-09T23:36:44.874Z,0.40
2023-05-09T23:39:12.416Z,0.40
2023-05-09T23:41:39.751Z,0.57
2023-05-09T23:44:07.739Z,0.60
2023-05-09T23:46:35.326Z,0.57
2023-05-09T23:49:02.697Z,0.40
2023-05-09T23:51:30.042Z,0.60
2023-05-09T23:53:57.683Z,0.40
2023-05-09T23:56:25.298Z,0.60
2023-05-09T23:58:52.755Z,1.07
